Time;durP1;ratioP1;P1;durP2;ratioP2;P2;SDS_P1;SDS_P2;PMS_P1;PMS_P2;Temp;Humidity;BMP_temperature;BMP_pressure;BME280_temperature;BME280_humidity;BME280_pressure;Samples;Min_cycle;Max_cycle;Signal;HPM_P1;HPM_P2
2023/07/05 00:01:39;;;;;;;5.20;3.40;;;21.70;1.00;;;;;;5008752;28;20253;-77
2023/07/05 00:04:04;;;;;;;6.73;3.50;;;21.70;1.00;;;;;;5008374;28;20181;-78
2023/07/05 00:06:30;;;;;;;5.40;3.40;;;21.70;1.00;;;;;;5009356;28;20253;-81
2023/07/05 00:08:57;;;;;;;5.63;3.43;;;21.70;1.00;;;;;;5008876;28;20667;-77
2023/07/05 00:11:23;;;;;;;8.87;3.70;;;21.60;1.00;;;;;;5008893;28;20248;-79
2023/07/05 00:13:48;;;;;;;5.27;3.43;;;21.60;1.00;;;;;;5008324;28;20449;-79
2023/07/05 00:16:14;;;;;;;7.53;2.90;;;21.60;1.00;;;;;;5008494;28;20228;-77
2023/07/05 00:18:40;;;;;;;6.60;3.03;;;21.70;1.00;;;;;;5008403;28;20223;-77
2023/07/05 00:21:07;;;;;;;4.90;3.47;;;21.80;1.00;;;;;;5007575;28;20194;-77
2023/07/05 00:23:34;;;;;;;7.97;3.40;;;23.60;1.00;;;;;;5008931;28;20668;-79
2023/07/05 00:26:01;;;;;;;5.43;2.83;;;21.90;1.00;;;;;;5008266;28;20476;-78
2023/07/05 00:28:27;;;;;;;4.50;3.07;;;21.90;1.00;;;;;;5009133;28;20449;-79
2023/07/05 00:30:52;;;;;;;5.80;3.43;;;21.90;1.00;;;;;;5007160;28;20491;-78
2023/07/05 00:33:18;;;;;;;12.03;3.20;;;21.50;1.00;;;;;;5001484;28;20280;-80
2023/07/05 00:35:48;;;;;;;8.47;3.90;;;21.40;1.00;;;;;;5008668;28;20194;-79
2023/07/05 00:38:14;;;;;;;6.10;3.80;;;21.30;1.00;;;;;;5007782;28;20225;-78
2023/07/05 00:40:40;;;;;;;9.53;4.17;;;20.80;1.00;;;;;;5008034;28;20461;-80
2023/07/05 00:43:05;;;;;;;9.10;3.80;;;20.50;1.00;;;;;;5008361;28;20178;-78
2023/07/05 00:45:48;;;;;;;8.83;4.50;;;20.00;1.00;;;;;;5008410;28;20217;-78
2023/07/05 00:48:14;;;;;;;7.90;4.37;;;19.50;1.00;;;;;;5008350;28;20194;-78
2023/07/05 00:50:42;;;;;;;10.60;5.23;;;19.10;1.00;;;;;;5008166;28;20469;-78
2023/07/05 00:53:09;;;;;;;7.23;4.83;;;18.80;1.00;;;;;;5006253;28;20768;-79
2023/07/05 00:55:45;;;;;;;9.90;5.20;;;18.70;1.00;;;;;;5005024;28;20535;-79
2023/07/05 00:58:10;;;;;;;10.67;5.20;;;18.60;1.00;;;;;;5006317;28;20472;-80
2023/07/05 01:00:36;;;;;;;9.73;4.80;;;18.60;1.00;;;;;;5002145;28;20469;-78
2023/07/05 01:03:08;;;;;;;9.63;4.67;;;18.70;1.00;;;;;;5008514;28;20183;-78
2023/07/05 01:05:36;;;;;;;8.33;4.90;;;18.60;1.00;;;;;;5003843;28;20182;-78
2023/07/05 01:08:04;;;;;;;7.83;4.70;;;18.50;1.00;;;;;;5009186;28;20425;-80
2023/07/05 01:10:29;;;;;;;8.10;4.50;;;18.50;1.00;;;;;;5009146;28;20434;-79
2023/07/05 01:13:06;;;;;;;8.43;5.20;;;20.40;1.00;;;;;;5007881;28;21005;-78
2023/07/05 01:15:42;;;;;;;8.30;4.60;;;18.70;1.00;;;;;;5002139;28;20190;-78
2023/07/05 01:18:20;;;;;;;7.43;4.77;;;18.60;1.00;;;;;;5005542;28;20465;-78
2023/07/05 01:21:08;;;;;;;6.73;4.50;;;18.60;1.00;;;;;;5006687;28;20866;-80
2023/07/05 01:23:45;;;;;;;6.43;4.73;;;18.50;1.00;;;;;;5007879;28;20414;-79
2023/07/05 01:26:44;;;;;;;7.50;4.60;;;18.40;1.00;;;;;;5007784;28;20479;-79
2023/07/05 01:29:22;;;;;;;7.43;4.33;;;18.30;1.00;;;;;;5006839;28;20970;-81
2023/07/05 01:32:01;;;;;;;7.50;5.17;;;18.30;1.00;;;;;;5003816;28;20437;-79
2023/07/05 01:34:55;;;;;;;6.33;3.77;;;18.20;1.00;;;;;;5000960;28;20491;-78
2023/07/05 01:37:42;;;;;;;7.40;3.93;;;18.30;1.00;;;;;;5008942;28;20446;-79
2023/07/05 01:40:30;;;;;;;10.93;4.10;;;18.20;1.00;;;;;;5007359;28;20812;-78
2023/07/05 01:43:02;;;;;;;6.50;4.43;;;18.20;1.00;;;;;;5007588;28;20421;-78
2023/07/05 01:45:44;;;;;;;10.40;3.93;;;18.20;1.00;;;;;;5009156;28;20417;-78
2023/07/05 01:48:23;;;;;;;5.03;3.40;;;18.20;1.00;;;;;;5006785;28;20439;-78
2023/07/05 01:50:55;;;;;;;6.50;3.87;;;18.20;1.00;;;;;;5008061;28;20430;-78
2023/07/05 01:53:29;;;;;;;7.50;3.70;;;18.20;1.00;;;;;;5006970;28;20438;-80
2023/07/05 01:56:09;;;;;;;6.30;4.03;;;18.20;1.00;;;;;;5007422;28;20445;-80
2023/07/05 01:58:42;;;;;;;5.57;3.77;;;18.00;1.00;;;;;;5006534;28;20464;-78
2023/07/05 02:01:11;;;;;;;7.93;4.00;;;18.10;1.00;;;;;;5007531;28;20548;-78
2023/07/05 02:03:38;;;;;;;5.87;4.27;;;18.10;1.00;;;;;;5007224;28;20545;-78
2023/07/05 02:06:05;;;;;;;7.30;3.50;;;18.00;1.00;;;;;;5008883;28;20423;-78
2023/07/05 02:08:35;;;;;;;5.40;3.70;;;18.10;1.00;;;;;;5008436;28;20433;-80
2023/07/05 02:11:02;;;;;;;4.00;2.50;;;18.10;1.00;;;;;;5008538;28;20943;-78
2023/07/05 02:13:28;;;;;;;6.93;3.50;;;18.10;1.00;;;;;;5012694;28;20761;-81
2023/07/05 02:15:53;;;;;;;6.33;2.90;;;18.10;1.00;;;;;;5012489;28;20523;-79
2023/07/05 02:18:19;;;;;;;10.50;3.13;;;18.10;1.00;;;;;;5010625;28;20723;-79
2023/07/05 02:20:45;;;;;;;4.53;2.70;;;18.10;1.00;;;;;;5011080;28;20182;-78
2023/07/05 02:23:11;;;;;;;4.30;2.90;;;18.00;1.00;;;;;;5011891;28;20178;-78
2023/07/05 02:25:36;;;;;;;5.50;3.10;;;18.00;1.00;;;;;;5011564;28;20186;-80
2023/07/05 02:28:07;;;;;;;5.33;2.97;;;18.00;1.00;;;;;;5011345;28;20178;-78
2023/07/05 02:30:38;;;;;;;4.80;2.77;;;18.10;1.00;;;;;;5010763;28;20276;-80
2023/07/05 02:33:03;;;;;;;9.70;4.07;;;18.10;1.00;;;;;;5005472;28;20920;-78
2023/07/05 02:35:29;;;;;;;5.93;3.17;;;18.10;1.00;;;;;;5011594;28;20506;-81
2023/07/05 02:37:55;;;;;;;4.03;3.00;;;18.10;1.00;;;;;;5010582;28;20210;-78
2023/07/05 02:40:22;;;;;;;4.07;2.70;;;18.10;1.00;;;;;;5011849;28;20708;-77
2023/07/05 02:42:47;;;;;;;4.40;2.60;;;18.20;1.00;;;;;;5011089;28;20421;-78
2023/07/05 02:45:13;;;;;;;4.60;2.60;;;18.20;1.00;;;;;;5011333;28;20442;-81
2023/07/05 02:47:39;;;;;;;3.57;2.50;;;18.20;1.00;;;;;;5011600;28;20589;-78
2023/07/05 02:50:04;;;;;;;3.70;2.73;;;18.20;1.00;;;;;;5011850;28;20580;-79
2023/07/05 02:52:30;;;;;;;5.80;3.00;;;18.20;1.00;;;;;;5011182;28;20661;-77
2023/07/05 02:54:55;;;;;;;4.77;2.70;;;18.20;1.00;;;;;;5011322;28;20287;-79
2023/07/05 02:57:21;;;;;;;3.83;3.03;;;18.20;1.00;;;;;;5011172;28;20198;-78
2023/07/05 02:59:46;;;;;;;7.60;3.07;;;18.10;1.00;;;;;;5010712;28;20217;-78
2023/07/05 03:02:12;;;;;;;4.70;2.90;;;18.20;1.00;;;;;;5010587;28;20205;-79
2023/07/05 03:04:37;;;;;;;5.93;3.27;;;18.10;1.00;;;;;;5008179;28;20585;-78
2023/07/05 03:07:03;;;;;;;7.47;3.00;;;18.10;1.00;;;;;;5007565;28;20182;-74
2023/07/05 03:09:29;;;;;;;4.97;3.17;;;18.10;1.00;;;;;;5010397;28;20297;-78
2023/07/05 03:11:54;;;;;;;4.53;2.90;;;18.10;1.00;;;;;;5009255;28;20322;-77
2023/07/05 03:14:20;;;;;;;3.43;2.73;;;18.40;1.00;;;;;;5008170;28;20420;-78
2023/07/05 03:16:45;;;;;;;4.53;3.00;;;18.10;1.00;;;;;;5010171;28;20669;-78
2023/07/05 03:19:11;;;;;;;5.60;3.63;;;18.10;1.00;;;;;;5008315;28;20229;-77
2023/07/05 03:21:36;;;;;;;7.93;3.27;;;18.10;1.00;;;;;;5008179;28;20183;-77
2023/07/05 03:24:02;;;;;;;8.47;3.77;;;18.10;1.00;;;;;;5008130;28;20182;-77
2023/07/05 03:26:27;;;;;;;4.90;3.10;;;18.20;1.00;;;;;;5007591;28;20185;-77
2023/07/05 03:28:53;;;;;;;4.10;2.83;;;18.20;1.00;;;;;;5009341;28;20222;-77
2023/07/05 03:31:18;;;;;;;7.80;2.73;;;18.10;1.00;;;;;;5007151;28;20665;-76
2023/07/05 03:33:44;;;;;;;4.60;3.30;;;18.30;1.00;;;;;;5009100;28;20576;-77
2023/07/05 03:36:13;;;;;;;6.40;3.30;;;18.30;1.00;;;;;;5007729;28;20190;-77
2023/07/05 03:38:39;;;;;;;4.60;3.13;;;18.70;1.00;;;;;;5007973;28;20210;-77
2023/07/05 03:41:08;;;;;;;6.80;3.23;;;18.30;1.00;;;;;;5009025;28;20444;-75
2023/07/05 03:43:35;;;;;;;4.87;3.37;;;18.30;1.00;;;;;;5009423;28;20174;-77
2023/07/05 03:46:03;;;;;;;7.43;3.33;;;18.20;1.00;;;;;;5009202;28;20602;-77
2023/07/05 03:48:30;;;;;;;6.50;3.27;;;18.20;1.00;;;;;;5009838;28;20528;-77
2023/07/05 03:50:57;;;;;;;6.23;3.70;;;18.20;1.00;;;;;;5009766;28;20472;-78
2023/07/05 03:53:23;;;;;;;5.60;3.20;;;18.20;1.00;;;;;;5008535;28;20532;-77
2023/07/05 03:55:49;;;;;;;5.27;3.07;;;18.30;1.00;;;;;;5009413;28;20445;-77
2023/07/05 03:58:14;;;;;;;6.63;3.80;;;16.80;1.00;;;;;;5006839;28;20484;-77
2023/07/05 04:00:40;;;;;;;7.60;3.10;;;18.40;1.00;;;;;;5007999;28;20220;-77
2023/07/05 04:03:05;;;;;;;6.13;3.47;;;18.50;1.00;;;;;;5007390;28;20233;-75
2023/07/05 04:05:32;;;;;;;4.50;3.37;;;18.50;1.00;;;;;;5002184;28;20713;-77
2023/07/05 04:07:58;;;;;;;5.33;3.43;;;18.50;1.00;;;;;;5008640;28;20197;-78
2023/07/05 04:10:23;;;;;;;7.30;4.10;;;18.60;1.00;;;;;;5008340;28;20469;-76
2023/07/05 04:12:49;;;;;;;6.57;3.70;;;18.70;1.00;;;;;;5008798;28;20649;-78
2023/07/05 04:15:15;;;;;;;8.47;3.70;;;18.70;1.00;;;;;;5007048;28;20194;-76
2023/07/05 04:17:40;;;;;;;5.77;3.77;;;18.70;1.00;;;;;;5008983;28;20248;-78
2023/07/05 04:20:06;;;;;;;5.27;3.70;;;18.70;1.00;;;;;;5008359;28;20209;-78
2023/07/05 04:22:35;;;;;;;5.37;3.43;;;18.70;1.00;;;;;;5003163;28;20179;-74
2023/07/05 04:25:00;;;;;;;4.27;3.57;;;18.80;1.00;;;;;;5007245;28;20483;-75
2023/07/05 04:27:26;;;;;;;7.73;3.67;;;18.80;1.00;;;;;;5007977;28;20446;-77
2023/07/05 04:29:51;;;;;;;4.87;3.30;;;18.90;1.00;;;;;;5007719;28;20214;-77
2023/07/05 04:32:17;;;;;;;5.07;3.40;;;19.00;1.00;;;;;;5004368;28;20269;-77
2023/07/05 04:34:42;;;;;;;6.43;3.40;;;19.10;1.00;;;;;;5006517;28;20193;-78
2023/07/05 04:37:08;;;;;;;7.77;3.57;;;19.30;1.00;;;;;;5007842;28;20256;-75
2023/07/05 04:39:33;;;;;;;6.30;3.57;;;19.30;1.00;;;;;;5006977;28;20573;-75
2023/07/05 04:41:59;;;;;;;5.03;3.73;;;19.40;1.00;;;;;;5008188;28;20236;-77
2023/07/05 04:44:24;;;;;;;6.23;3.70;;;19.40;1.00;;;;;;5006859;28;20182;-77
2023/07/05 04:46:50;;;;;;;6.33;3.60;;;19.50;1.00;;;;;;5005468;28;20187;-76
2023/07/05 04:49:15;;;;;;;8.70;3.67;;;19.40;1.00;;;;;;5007792;28;20249;-77
2023/07/05 04:51:41;;;;;;;4.40;3.13;;;19.40;1.00;;;;;;5008906;28;20187;-78
2023/07/05 04:54:06;;;;;;;5.20;3.63;;;19.50;1.00;;;;;;5007389;28;20194;-76
2023/07/05 04:56:32;;;;;;;5.00;3.57;;;19.70;1.00;;;;;;5008015;28;20182;-77
2023/07/05 04:58:57;;;;;;;6.40;4.07;;;19.70;1.00;;;;;;5006782;28;20289;-77
2023/07/05 05:01:23;;;;;;;12.10;3.90;;;19.80;1.00;;;;;;5006971;28;20194;-77
2023/07/05 05:03:48;;;;;;;5.73;3.50;;;19.70;1.00;;;;;;5007160;28;20166;-77
2023/07/05 05:06:14;;;;;;;7.33;3.57;;;19.30;1.00;;;;;;5005300;28;20182;-77
2023/07/05 05:08:40;;;;;;;8.37;3.63;;;19.10;1.00;;;;;;5008404;28;20198;-77
2023/07/05 05:11:06;;;;;;;6.53;3.60;;;18.80;1.00;;;;;;5007157;28;20638;-77
2023/07/05 05:13:33;;;;;;;4.47;3.27;;;18.60;1.00;;;;;;5005364;28;20184;-77
2023/07/05 05:15:59;;;;;;;5.83;2.97;;;18.40;1.00;;;;;;5007409;28;20564;-77
2023/07/05 05:18:29;;;;;;;10.77;3.27;;;18.20;1.00;;;;;;5007169;28;20457;-77
2023/07/05 05:20:54;;;;;;;4.60;3.30;;;18.20;1.00;;;;;;5006973;28;20445;-77
2023/07/05 05:23:20;;;;;;;6.20;3.73;;;18.10;1.00;;;;;;5002870;28;20507;-77
2023/07/05 05:25:46;;;;;;;8.93;4.43;;;18.10;1.00;;;;;;5006097;28;20205;-77
2023/07/05 05:28:13;;;;;;;5.27;3.40;;;20.90;1.00;;;;;;5005123;28;20399;-76
2023/07/05 05:30:40;;;;;;;5.60;3.10;;;18.00;1.00;;;;;;5007669;28;20469;-78
2023/07/05 05:33:06;;;;;;;7.03;4.13;;;18.10;1.00;;;;;;5005070;28;20449;-76
2023/07/05 05:35:32;;;;;;;5.70;3.20;;;18.10;1.00;;;;;;5006321;28;20445;-77
2023/07/05 05:37:58;;;;;;;6.40;2.87;;;18.20;1.00;;;;;;5005902;28;20205;-76
2023/07/05 05:40:23;;;;;;;5.57;2.87;;;18.10;1.00;;;;;;5006859;28;20874;-75
2023/07/05 05:42:49;;;;;;;5.43;2.90;;;18.00;1.00;;;;;;5006562;28;20206;-77
2023/07/05 05:45:15;;;;;;;3.77;2.90;;;18.00;1.00;;;;;;5005790;28;20175;-76
2023/07/05 05:47:40;;;;;;;5.40;3.30;;;17.90;1.00;;;;;;5006294;28;20186;-77
2023/07/05 05:50:06;;;;;;;4.50;2.90;;;17.90;1.00;;;;;;5006526;28;20282;-77
2023/07/05 05:52:33;;;;;;;4.40;2.90;;;18.00;1.00;;;;;;5002089;28;20447;-72
2023/07/05 05:54:59;;;;;;;4.63;3.00;;;18.10;1.00;;;;;;4984415;28;20442;-73
2023/07/05 05:57:24;;;;;;;4.23;2.80;;;18.20;1.00;;;;;;4997890;28;20908;-76
2023/07/05 05:59:50;;;;;;;3.30;2.70;;;18.10;1.00;;;;;;4997889;28;20214;-77
2023/07/05 06:02:16;;;;;;;4.27;2.73;;;18.10;1.00;;;;;;5000050;28;20256;-77
2023/07/05 06:04:41;;;;;;;4.50;3.17;;;18.00;1.00;;;;;;5004289;28;20281;-77
2023/07/05 06:07:07;;;;;;;7.00;3.30;;;18.00;1.00;;;;;;5004389;28;20221;-77
2023/07/05 06:09:43;;;;;;;5.17;3.00;;;18.10;1.00;;;;;;5006961;28;20593;-77
2023/07/05 06:12:08;;;;;;;3.87;2.90;;;18.10;1.00;;;;;;5007380;28;20200;-78
2023/07/05 06:14:34;;;;;;;5.13;3.37;;;18.10;1.00;;;;;;5005087;28;20445;-78
2023/07/05 06:17:00;;;;;;;5.90;2.60;;;18.10;1.00;;;;;;5005218;28;20269;-79
2023/07/05 06:19:25;;;;;;;3.20;2.50;;;18.10;1.00;;;;;;5005348;28;20213;-78
2023/07/05 06:21:51;;;;;;;4.17;2.90;;;18.00;1.00;;;;;;5004299;28;20638;-77
2023/07/05 06:24:16;;;;;;;4.40;2.70;;;17.90;1.00;;;;;;5001818;28;20194;-78
2023/07/05 06:26:42;;;;;;;4.13;2.60;;;18.00;1.00;;;;;;5003167;28;20595;-78
2023/07/05 06:29:07;;;;;;;3.47;2.10;;;18.00;1.00;;;;;;5004342;28;20213;-77
2023/07/05 06:31:33;;;;;;;3.17;2.40;;;18.10;1.00;;;;;;5003313;28;20194;-78
2023/07/05 06:34:01;;;;;;;5.77;3.10;;;18.10;1.00;;;;;;5007542;28;20672;-78
2023/07/05 06:36:26;;;;;;;3.50;2.57;;;18.40;1.00;;;;;;5006678;28;20369;-77
2023/07/05 06:38:52;;;;;;;4.33;2.80;;;18.30;1.00;;;;;;5005511;28;20880;-78
2023/07/05 06:41:18;;;;;;;5.40;2.73;;;18.30;1.00;;;;;;5003287;28;20189;-77
2023/07/05 06:43:44;;;;;;;4.30;3.20;;;18.30;1.00;;;;;;5005141;28;20232;-78
2023/07/05 06:46:09;;;;;;;4.83;3.10;;;18.40;1.00;;;;;;5006378;28;20193;-78
2023/07/05 06:48:35;;;;;;;5.27;3.13;;;18.50;1.00;;;;;;5006085;28;20197;-77
2023/07/05 06:51:01;;;;;;;4.43;3.00;;;18.50;1.00;;;;;;5004215;28;20209;-78
2023/07/05 06:53:26;;;;;;;4.80;2.97;;;18.50;1.00;;;;;;5006411;28;20269;-77
2023/07/05 06:55:52;;;;;;;4.53;3.27;;;18.60;1.00;;;;;;5000913;28;20183;-76
2023/07/05 06:58:21;;;;;;;6.30;3.20;;;18.70;1.00;;;;;;5004148;28;20209;-76
2023/07/05 07:00:48;;;;;;;6.20;3.27;;;18.70;1.00;;;;;;5010130;28;20580;-76
2023/07/05 07:03:14;;;;;;;6.00;3.70;;;18.80;1.00;;;;;;5009348;28;20441;-77
2023/07/05 07:05:40;;;;;;;6.00;3.83;;;19.00;1.00;;;;;;5008823;28;20559;-77
2023/07/05 07:08:05;;;;;;;5.40;3.60;;;19.10;1.00;;;;;;5007560;28;20433;-77
2023/07/05 07:10:35;;;;;;;6.70;4.00;;;19.20;1.00;;;;;;5009387;28;20280;-77
2023/07/05 07:13:02;;;;;;;8.80;3.40;;;19.10;1.00;;;;;;5007270;28;20186;-74
2023/07/05 07:15:27;;;;;;;7.07;4.13;;;19.20;1.00;;;;;;5006284;28;20476;-77
2023/07/05 07:17:53;;;;;;;5.63;3.90;;;19.20;1.00;;;;;;5005761;28;20556;-75
2023/07/05 07:20:19;;;;;;;7.40;4.80;;;19.30;1.00;;;;;;5004478;28;20787;-77
2023/07/05 07:22:45;;;;;;;8.83;4.60;;;19.30;1.00;;;;;;5004873;28;20185;-75
2023/07/05 07:25:10;;;;;;;6.30;4.30;;;19.20;1.00;;;;;;5006675;28;20654;-75
2023/07/05 07:27:36;;;;;;;7.43;4.70;;;19.40;1.00;;;;;;5001805;28;20652;-76
2023/07/05 07:30:02;;;;;;;8.20;5.10;;;19.50;1.00;;;;;;5004690;28;20568;-77
2023/07/05 07:32:27;;;;;;;8.50;4.70;;;19.70;1.00;;;;;;5002117;28;20187;-72
2023/07/05 07:34:54;;;;;;;8.07;4.90;;;19.90;1.00;;;;;;5000639;28;20456;-74
2023/07/05 07:37:20;;;;;;;7.07;5.00;;;19.90;1.00;;;;;;5004953;28;20333;-76
2023/07/05 07:39:45;;;;;;;8.13;4.90;;;20.40;1.00;;;;;;5007615;28;20547;-76
2023/07/05 07:42:11;;;;;;;13.27;5.23;;;20.40;1.00;;;;;;4996276;28;20766;-73
2023/07/05 07:44:36;;;;;;;8.30;5.43;;;21.40;1.00;;;;;;5002894;28;20649;-77
2023/07/05 07:47:03;;;;;;;8.40;5.57;;;20.90;1.00;;;;;;5002459;28;20181;-75
2023/07/05 07:49:28;;;;;;;7.90;4.63;;;20.80;1.00;;;;;;5000147;28;20202;-77
2023/07/05 07:51:55;;;;;;;7.10;4.63;;;20.80;1.00;;;;;;4998656;28;20444;-73
2023/07/05 07:54:25;;;;;;;7.50;4.67;;;20.70;1.00;;;;;;5001449;28;20190;-76
2023/07/05 07:56:52;;;;;;;6.80;4.47;;;20.90;1.00;;;;;;5005164;28;20461;-75
2023/07/05 07:59:18;;;;;;;6.60;4.27;;;21.10;1.00;;;;;;5007274;28;20512;-74
2023/07/05 08:01:44;;;;;;;7.33;4.73;;;21.40;1.00;;;;;;5002964;28;20535;-77
2023/07/05 08:04:11;;;;;;;7.13;4.47;;;21.10;1.00;;;;;;5006646;28;20447;-79
2023/07/05 08:06:40;;;;;;;7.17;4.00;;;21.00;1.00;;;;;;5006921;28;20531;-78
2023/07/05 08:09:12;;;;;;;8.10;4.73;;;21.00;1.00;;;;;;5006496;28;20587;-76
2023/07/05 08:11:39;;;;;;;6.27;4.30;;;21.40;1.00;;;;;;5007139;28;20445;-77
2023/07/05 08:14:05;;;;;;;7.40;4.57;;;21.40;1.00;;;;;;5007724;28;21019;-77
2023/07/05 08:16:30;;;;;;;7.83;4.67;;;21.40;1.00;;;;;;5000952;28;20943;-77
2023/07/05 08:18:57;;;;;;;7.47;4.90;;;21.20;1.00;;;;;;5005669;28;20475;-78
2023/07/05 08:21:23;;;;;;;10.33;4.67;;;21.60;1.00;;;;;;5001574;28;20189;-77
2023/07/05 08:23:48;;;;;;;6.40;3.80;;;21.90;1.00;;;;;;5005341;28;20437;-79
2023/07/05 08:26:15;;;;;;;7.07;4.20;;;21.90;1.00;;;;;;5004845;28;20645;-77
2023/07/05 08:28:41;;;;;;;5.70;3.90;;;22.20;1.00;;;;;;5004472;28;20564;-77
2023/07/05 08:31:08;;;;;;;5.47;3.60;;;22.10;1.00;;;;;;5006051;28;20491;-77
2023/07/05 08:33:35;;;;;;;5.10;3.30;;;22.30;1.00;;;;;;5003577;28;20445;-79
2023/07/05 08:36:17;;;;;;;8.10;4.00;;;22.60;1.00;;;;;;5008293;28;20468;-77
2023/07/05 08:38:50;;;;;;;7.33;3.80;;;22.70;1.00;;;;;;5006925;28;20566;-79
2023/07/05 08:41:45;;;;;;;7.00;4.30;;;22.50;1.00;;;;;;5004433;28;20535;-79
2023/07/05 08:44:36;;;;;;;6.07;4.00;;;22.30;1.00;;;;;;5008238;28;20946;-77
2023/07/05 08:47:15;;;;;;;5.70;3.70;;;22.40;1.00;;;;;;5005267;28;20433;-77
2023/07/05 08:49:49;;;;;;;6.47;3.70;;;23.40;1.00;;;;;;5007501;28;20533;-77
2023/07/05 08:52:25;;;;;;;6.57;4.33;;;22.50;1.00;;;;;;5000549;28;20448;-77
2023/07/05 08:54:56;;;;;;;6.90;3.70;;;22.70;1.00;;;;;;5001719;28;20440;-77
2023/07/05 08:57:28;;;;;;;5.90;3.83;;;23.20;1.00;;;;;;5008733;28;20448;-77
2023/07/05 08:59:57;;;;;;;5.87;3.80;;;22.80;1.00;;;;;;5006979;28;21073;-78
2023/07/05 09:02:23;;;;;;;6.30;3.60;;;22.90;1.00;;;;;;5009017;28;20440;-78
2023/07/05 09:04:49;;;;;;;7.30;4.10;;;22.80;1.00;;;;;;5008919;28;20489;-79
2023/07/05 09:07:46;;;;;;;9.23;3.90;;;22.90;1.00;;;;;;5007509;28;20672;-77
2023/07/05 09:10:21;;;;;;;5.90;3.63;;;23.40;1.00;;;;;;5005206;28;20558;-75
2023/07/05 09:13:02;;;;;;;7.20;4.03;;;24.40;1.00;;;;;;5006749;28;20475;-75
2023/07/05 09:15:35;;;;;;;7.83;3.40;;;24.40;1.00;;;;;;5009023;28;20437;-76
2023/07/05 09:18:27;;;;;;;5.13;3.57;;;25.10;1.00;;;;;;5004713;28;20455;-75
2023/07/05 09:21:14;;;;;;;6.03;3.10;;;25.30;1.00;;;;;;4998389;28;20864;-76
2023/07/05 09:23:47;;;;;;;5.77;3.63;;;25.80;1.00;;;;;;5005202;28;20527;-77
2023/07/05 09:26:24;;;;;;;6.30;3.30;;;26.40;1.00;;;;;;5012749;28;20432;-77
2023/07/05 09:29:14;;;;;;;7.53;3.50;;;26.60;1.00;;;;;;5004318;28;20533;-78
2023/07/05 09:31:43;;;;;;;4.30;3.00;;;27.50;1.00;;;;;;5008789;28;20212;-77
2023/07/05 09:34:14;;;;;;;5.97;3.87;;;27.70;1.00;;;;;;5004921;28;20207;-76
2023/07/05 09:36:42;;;;;;;9.70;3.77;;;27.90;1.00;;;;;;5013263;28;20186;-76
2023/07/05 09:39:28;;;;;;;5.40;3.50;;;28.10;1.00;;;;;;5003804;28;20207;-75
2023/07/05 09:41:58;;;;;;;5.17;3.63;;;27.90;1.00;;;;;;5000924;28;20210;-76
2023/07/05 09:44:24;;;;;;;5.87;4.00;;;27.70;1.00;;;;;;5008605;28;21003;-76
2023/07/05 09:46:49;;;;;;;5.03;3.30;;;28.30;1.00;;;;;;5008728;28;20189;-76
2023/07/05 09:49:17;;;;;;;4.22;3.10;;;28.80;1.00;;;;;;5008204;28;20217;-77
2023/07/05 09:51:44;;;;;;;5.07;3.47;;;29.00;1.00;;;;;;5007331;28;20192;-76
2023/07/05 09:54:25;;;;;;;4.63;3.20;;;29.20;1.00;;;;;;5008852;28;20232;-76
2023/07/05 09:57:04;;;;;;;4.80;2.92;;;29.40;1.00;;;;;;5006033;28;20652;-80
2023/07/05 09:59:31;;;;;;;12.20;3.35;;;29.30;1.00;;;;;;5008840;28;20579;-76
2023/07/05 10:02:15;;;;;;;5.75;3.30;;;29.70;1.00;;;;;;5008497;28;20182;-79
2023/07/05 10:04:47;;;;;;;4.60;2.97;;;30.20;1.00;;;;;;5009233;28;20185;-77
2023/07/05 10:07:18;;;;;;;4.85;2.85;;;29.70;1.00;;;;;;5008435;28;20184;-77
2023/07/05 10:09:54;;;;;;;5.03;3.10;;;29.70;1.00;;;;;;5005967;28;20210;-76
2023/07/05 10:12:22;;;;;;;4.03;2.92;;;30.30;1.00;;;;;;5009236;28;20272;-79
2023/07/05 10:14:54;;;;;;;10.75;3.60;;;29.60;1.00;;;;;;5008550;28;20197;-77
2023/07/05 10:17:19;;;;;;;10.52;3.05;;;29.20;1.00;;;;;;5005397;28;20190;-76
2023/07/05 10:19:51;;;;;;;4.10;2.80;;;28.40;1.00;;;;;;5005159;28;20575;-75
2023/07/05 10:22:46;;;;;;;4.07;2.70;;;29.20;1.00;;;;;;5003725;28;20296;-76
2023/07/05 10:25:19;;;;;;;4.70;3.05;;;28.50;1.00;;;;;;5010506;28;20195;-79
2023/07/05 10:27:51;;;;;;;6.75;2.85;;;29.40;1.00;;;;;;4997019;28;20752;-78
2023/07/05 10:30:19;;;;;;;5.50;3.10;;;30.30;1.00;;;;;;5003016;28;20209;-76
2023/07/05 10:32:49;;;;;;;6.15;3.15;;;30.40;1.00;;;;;;5011322;28;20178;-78
2023/07/05 10:35:25;;;;;;;15.50;3.17;;;30.80;1.00;;;;;;5006941;28;20191;-77
2023/07/05 10:37:52;;;;;;;5.28;2.65;;;31.10;1.00;;;;;;5015559;28;20186;-77
2023/07/05 10:40:19;;;;;;;4.20;2.65;;;31.30;1.00;;;;;;5010608;28;20293;-76
2023/07/05 10:42:49;;;;;;;5.88;2.90;;;30.70;1.00;;;;;;5010383;28;20187;-78
2023/07/05 10:45:19;;;;;;;6.07;2.95;;;30.90;1.00;;;;;;5009888;28;20594;-75
2023/07/05 10:47:52;;;;;;;5.32;2.90;;;31.10;1.00;;;;;;5013283;28;20196;-76
2023/07/05 10:50:26;;;;;;;5.68;2.60;;;31.00;1.00;;;;;;5010967;28;20213;-76
2023/07/05 10:52:59;;;;;;;7.80;3.10;;;29.20;1.00;;;;;;5009012;28;20270;-77
2023/07/05 10:55:39;;;;;;;4.35;2.85;;;29.20;1.00;;;;;;5006703;28;20188;-76
2023/07/05 10:58:18;;;;;;;4.00;2.50;;;30.10;1.00;;;;;;5007352;28;20185;-76
2023/07/05 11:01:18;;;;;;;5.05;2.90;;;30.90;1.00;;;;;;5010426;28;20507;-77
2023/07/05 11:04:02;;;;;;;4.82;2.90;;;31.60;1.00;;;;;;5010624;28;20178;-76
2023/07/05 11:06:28;;;;;;;8.80;3.28;;;30.90;1.00;;;;;;5005689;28;20182;-78
2023/07/05 11:08:54;;;;;;;7.00;3.00;;;30.10;1.00;;;;;;5011179;28;20201;-75
2023/07/05 11:11:25;;;;;;;7.65;2.90;;;31.10;1.00;;;;;;5007364;28;20203;-76
2023/07/05 11:13:52;;;;;;;6.50;3.22;;;31.00;1.00;;;;;;5011892;28;20209;-75
2023/07/05 11:16:21;;;;;;;3.95;2.92;;;32.30;1.00;;;;;;5007309;28;20212;-76
2023/07/05 11:18:48;;;;;;;4.95;3.10;;;33.60;1.00;;;;;;5009277;28;20210;-77
2023/07/05 11:21:33;;;;;;;10.38;3.28;;;33.10;1.00;;;;;;5011142;28;20343;-76
2023/07/05 11:23:59;;;;;;;5.75;3.10;;;33.00;1.00;;;;;;5000867;28;20178;-77
2023/07/05 11:26:34;;;;;;;4.97;2.90;;;32.10;1.00;;;;;;5008010;28;20193;-76
2023/07/05 11:29:00;;;;;;;6.47;2.80;;;31.90;1.00;;;;;;4999352;28;20198;-77
2023/07/05 11:31:28;;;;;;;5.10;2.90;;;32.30;1.00;;;;;;5003029;28;20794;-75
2023/07/05 11:34:25;;;;;;;7.18;2.67;;;32.80;1.00;;;;;;5010072;28;20190;-75
2023/07/05 11:36:54;;;;;;;5.60;2.38;;;33.40;1.00;;;;;;5003975;28;20244;-76
2023/07/05 11:39:32;;;;;;;5.68;2.78;;;32.70;1.00;;;;;;5011202;28;20210;-75
2023/07/05 11:41:58;;;;;;;3.92;2.50;;;32.10;1.00;;;;;;5000997;28;20178;-76
2023/07/05 11:44:30;;;;;;;3.45;2.40;;;32.50;1.00;;;;;;5003775;28;20234;-76
2023/07/05 11:46:56;;;;;;;4.72;2.75;;;33.30;1.00;;;;;;5010170;28;20174;-75
2023/07/05 11:49:21;;;;;;;4.32;2.75;;;33.50;1.00;;;;;;5017618;28;20564;-76
2023/07/05 11:52:04;;;;;;;6.03;2.80;;;33.90;1.00;;;;;;5009785;28;20177;-77
2023/07/05 11:54:57;;;;;;;5.57;2.67;;;33.00;1.00;;;;;;5010816;28;20194;-75
2023/07/05 11:57:23;;;;;;;5.65;2.80;;;32.80;1.00;;;;;;5008008;28;20258;-79
2023/07/05 12:00:18;;;;;;;3.70;2.63;;;32.80;1.00;;;;;;5010650;28;20206;-76
2023/07/05 12:02:48;;;;;;;5.05;2.58;;;31.60;1.00;;;;;;5008219;28;20174;-77
2023/07/05 12:05:19;;;;;;;5.95;2.33;;;32.40;1.00;;;;;;5003620;28;20221;-77
2023/07/05 12:07:54;;;;;;;4.78;2.60;;;33.20;1.00;;;;;;5008562;28;20189;-78
2023/07/05 12:10:24;;;;;;;7.35;2.58;;;32.80;1.00;;;;;;5005834;28;20228;-79
2023/07/05 12:12:49;;;;;;;4.28;2.90;;;33.00;1.00;;;;;;5007607;28;20174;-79
2023/07/05 12:15:16;;;;;;;4.82;2.40;;;33.20;1.00;;;;;;5007742;28;20189;-77
2023/07/05 12:17:42;;;;;;;3.88;2.28;;;33.10;1.00;;;;;;5008948;28;20202;-78
2023/07/05 12:20:21;;;;;;;9.02;3.20;;;33.40;1.00;;;;;;5010854;28;20244;-77
2023/07/05 12:22:47;;;;;;;4.50;2.58;;;33.30;1.00;;;;;;5007994;28;20193;-77
2023/07/05 12:25:13;;;;;;;5.07;2.65;;;33.90;1.00;;;;;;5000708;28;20182;-78
2023/07/05 12:27:38;;;;;;;4.25;2.38;;;33.50;1.00;;;;;;5009667;28;20605;-77
2023/07/05 12:30:05;;;;;;;3.60;2.40;;;33.50;1.00;;;;;;5010800;28;20716;-78
2023/07/05 12:32:31;;;;;;;5.80;2.75;;;32.90;1.00;;;;;;5003584;28;20572;-77
2023/07/05 12:35:15;;;;;;;4.57;2.67;;;33.00;1.00;;;;;;5003003;28;20193;-78
2023/07/05 12:37:41;;;;;;;5.38;2.88;;;33.20;1.00;;;;;;5010165;28;20182;-78
2023/07/05 12:40:12;;;;;;;8.07;2.95;;;33.50;1.00;;;;;;5003056;28;20210;-77
2023/07/05 12:42:56;;;;;;;7.50;2.80;;;33.80;1.00;;;;;;5007076;28;20181;-79
2023/07/05 12:45:44;;;;;;;4.72;2.55;;;33.90;1.00;;;;;;5010410;28;20186;-77
2023/07/05 12:48:25;;;;;;;5.28;2.30;;;34.20;1.00;;;;;;5007691;28;20194;-77
2023/07/05 12:51:02;;;;;;;5.93;2.75;;;33.70;1.00;;;;;;4994155;28;20206;-77
2023/07/05 12:53:28;;;;;;;5.65;2.65;;;34.20;1.00;;;;;;5001565;28;20185;-76
2023/07/05 12:55:58;;;;;;;5.32;2.40;;;34.30;1.00;;;;;;5008308;28;20714;-78
2023/07/05 12:58:26;;;;;;;5.47;2.10;;;35.60;1.00;;;;;;5004236;28;20304;-77
2023/07/05 13:00:54;;;;;;;4.57;2.53;;;35.60;1.00;;;;;;5009148;28;20211;-76
2023/07/05 13:03:20;;;;;;;5.32;2.72;;;35.00;1.00;;;;;;5009900;28;20200;-77
2023/07/05 13:05:47;;;;;;;4.38;2.63;;;35.50;1.00;;;;;;5009811;28;20174;-77
2023/07/05 13:08:14;;;;;;;7.28;3.03;;;35.20;1.00;;;;;;5010510;28;20189;-79
2023/07/05 13:10:41;;;;;;;5.97;2.70;;;32.90;1.00;;;;;;5003837;28;20202;-76